Time;durP1;ratioP1;P1;durP2;ratioP2;P2;SDS_P1;SDS_P2;PMS_P1;PMS_P2;Temp;Humidity;BMP_temperature;BMP_pressure;BME280_temperature;BME280_humidity;BME280_pressure;Samples;Min_cycle;Max_cycle;Signal;HPM_P1;HPM_P2
2023/04/25 00:02:13;;;;;;;18.92;10.80;;;5.30;99.90;;;;;;5050805;28;20029;-88
2023/04/25 00:04:39;;;;;;;19.63;11.13;;;5.30;99.90;;;;;;5032446;28;20453;-88
2023/04/25 00:07:06;;;;;;;20.15;10.45;;;5.30;99.90;;;;;;5034336;28;20029;-88
2023/04/25 00:09:32;;;;;;;21.67;12.65;;;5.40;99.90;;;;;;5032639;28;20060;-88
2023/04/25 00:11:58;;;;;;;21.40;11.70;;;5.40;99.90;;;;;;5019887;28;20037;-87
2023/04/25 00:14:24;;;;;;;18.88;11.75;;;5.40;99.90;;;;;;5032504;28;20025;-87
2023/04/25 00:16:51;;;;;;;21.27;11.73;;;5.40;99.90;;;;;;5020226;28;20076;-88
2023/04/25 00:19:17;;;;;;;22.42;12.77;;;5.40;99.90;;;;;;5030546;28;20043;-87
2023/04/25 00:21:45;;;;;;;19.70;12.30;;;5.40;99.90;;;;;;5014402;28;20378;-87
2023/04/25 00:24:12;;;;;;;21.20;12.20;;;5.40;99.90;;;;;;5015954;28;20022;-88
2023/04/25 00:26:37;;;;;;;19.05;11.90;;;5.40;99.90;;;;;;5026580;28;20021;-88
2023/04/25 00:29:03;;;;;;;22.27;12.10;;;5.40;99.90;;;;;;5036266;28;20100;-88
2023/04/25 00:31:29;;;;;;;23.25;13.07;;;5.40;99.90;;;;;;5029343;28;20033;-88
2023/04/25 00:33:55;;;;;;;19.38;12.48;;;5.50;99.90;;;;;;5039513;28;20087;-88
2023/04/25 00:36:21;;;;;;;24.30;12.20;;;5.40;99.90;;;;;;5043704;28;20065;-87
2023/04/25 00:38:46;;;;;;;21.73;12.55;;;5.40;99.90;;;;;;5051313;28;20026;-88
2023/04/25 00:41:12;;;;;;;19.20;12.60;;;5.40;99.90;;;;;;5025250;28;20537;-88
2023/04/25 00:43:39;;;;;;;22.20;12.82;;;5.40;99.90;;;;;;5033524;28;20013;-88
2023/04/25 00:46:05;;;;;;;20.95;12.38;;;5.40;99.90;;;;;;5018514;28;20550;-88
2023/04/25 00:48:31;;;;;;;20.30;13.30;;;5.40;99.90;;;;;;5035460;28;20049;-88
2023/04/25 00:51:00;;;;;;;28.55;14.52;;;5.40;99.90;;;;;;5018422;28;20122;-88
2023/04/25 00:53:27;;;;;;;23.15;13.30;;;5.30;99.90;;;;;;5033967;28;20033;-88
2023/04/25 00:55:53;;;;;;;27.27;15.13;;;5.20;99.90;;;;;;5022733;28;20030;-88
2023/04/25 00:58:20;;;;;;;26.65;14.40;;;5.20;99.90;;;;;;5030339;28;20514;-87
2023/04/25 01:00:48;;;;;;;27.08;14.77;;;5.10;99.90;;;;;;5013468;28;20096;-89
2023/04/25 01:03:19;;;;;;;33.15;16.08;;;5.10;99.90;;;;;;5029208;28;20030;-89
2023/04/25 01:05:45;;;;;;;;;;;5.00;99.90;;;;;;5028534;28;20022;-89
2023/04/25 01:08:12;;;;;;;27.77;15.13;;;5.00;99.90;;;;;;5015326;28;19932;-88
2023/04/25 01:10:38;;;;;;;36.92;18.67;;;4.90;99.90;;;;;;5028882;28;20452;-88
2023/04/25 01:13:03;;;;;;;29.27;16.30;;;4.90;99.90;;;;;;5031926;28;20115;-88
2023/04/25 01:15:29;;;;;;;30.30;16.33;;;4.90;99.90;;;;;;5025266;28;20108;-87
2023/04/25 01:17:55;;;;;;;32.42;15.95;;;4.90;99.90;;;;;;5017068;28;20032;-88
2023/04/25 01:20:22;;;;;;;32.75;17.40;;;4.80;99.90;;;;;;5026212;28;20034;-89
2023/04/25 01:22:50;;;;;;;26.95;16.20;;;4.80;99.90;;;;;;5051354;28;20029;-88
2023/04/25 01:25:16;;;;;;;37.72;16.92;;;4.80;99.90;;;;;;5035816;28;20049;-89
2023/04/25 01:27:43;;;;;;;32.92;17.17;;;4.70;99.90;;;;;;5033875;28;20028;-88
2023/04/25 01:30:09;;;;;;;37.05;17.75;;;4.70;99.90;;;;;;5030933;28;20563;-88
2023/04/25 01:32:38;;;;;;;38.50;19.00;;;4.70;99.90;;;;;;5032763;28;20030;-89
2023/04/25 01:35:09;;;;;;;35.50;18.52;;;4.70;99.90;;;;;;5016715;28;20046;-88
2023/04/25 01:37:39;;;;;;;35.00;18.10;;;4.70;99.90;;;;;;5035813;28;20500;-88
2023/04/25 01:40:06;;;;;;;33.00;17.85;;;4.70;99.90;;;;;;5033631;28;20034;-88
2023/04/25 01:42:33;;;;;;;38.78;17.40;;;4.60;99.90;;;;;;5036927;28;20116;-89
2023/04/25 01:44:59;;;;;;;38.95;17.70;;;4.50;99.90;;;;;;5014170;28;20081;-88
2023/04/25 01:47:26;;;;;;;37.35;17.17;;;4.40;99.90;;;;;;5046006;28;20030;-88
2023/04/25 01:49:54;;;;;;;40.13;18.52;;;4.40;99.90;;;;;;5024020;28;20056;-88
2023/04/25 01:52:21;;;;;;;41.80;19.83;;;4.40;99.90;;;;;;5026381;28;20106;-88
2023/04/25 01:54:47;;;;;;;43.05;18.88;;;4.30;99.90;;;;;;5035033;28;20116;-88
2023/04/25 01:57:15;;;;;;;37.78;18.13;;;4.30;99.90;;;;;;5029104;28;20508;-88
2023/04/25 01:59:43;;;;;;;48.13;20.45;;;4.30;99.90;;;;;;5035899;28;20489;-88
2023/04/25 02:02:18;;;;;;;42.92;19.75;;;4.40;99.90;;;;;;5022226;28;20543;-88
2023/04/25 02:04:43;;;;;;;46.40;20.13;;;4.50;99.90;;;;;;5052662;28;20021;-88
2023/04/25 02:07:09;;;;;;;39.65;18.92;;;4.50;99.90;;;;;;5022002;28;20026;-88
2023/04/25 02:09:44;;;;;;;36.63;18.77;;;4.50;99.90;;;;;;5053405;28;20053;-87
2023/04/25 02:12:11;;;;;;;42.72;19.77;;;4.50;99.90;;;;;;5032692;28;20041;-88
2023/04/25 02:14:55;;;;;;;42.42;19.40;;;4.50;99.90;;;;;;5036570;28;20039;-87
2023/04/25 02:17:27;;;;;;;;;;;4.50;99.90;;;;;;5023221;28;20120;-88
2023/04/25 02:19:52;;;;;;;45.72;20.45;;;4.60;99.90;;;;;;5032549;28;20000;-87
2023/04/25 02:22:18;;;;;;;48.22;22.30;;;4.60;99.90;;;;;;5017049;28;20033;-87
2023/04/25 02:24:46;;;;;;;42.78;20.25;;;4.70;99.90;;;;;;5032391;28;20014;-87
2023/04/25 02:27:12;;;;;;;49.33;21.15;;;4.70;99.90;;;;;;5032954;28;20396;-87
2023/04/25 02:29:38;;;;;;;46.40;21.15;;;4.70;99.90;;;;;;5025084;28;20026;-88
2023/04/25 02:32:04;;;;;;;49.35;21.02;;;4.70;99.90;;;;;;5031697;28;20116;-88
2023/04/25 02:34:30;;;;;;;41.60;21.33;;;4.80;99.90;;;;;;5023572;28;20045;-87
2023/04/25 02:36:56;;;;;;;41.92;21.50;;;4.80;99.90;;;;;;5031550;28;20026;-87
2023/04/25 02:39:22;;;;;;;44.15;21.38;;;4.80;99.90;;;;;;5051848;28;20040;-88
2023/04/25 02:41:48;;;;;;;40.85;19.63;;;4.80;99.90;;;;;;5032686;28;20033;-87
2023/04/25 02:44:14;;;;;;;41.22;20.40;;;4.90;99.90;;;;;;5026362;28;20029;-88
2023/04/25 02:46:40;;;;;;;42.97;19.10;;;4.90;99.90;;;;;;5033069;28;20117;-88
2023/04/25 02:49:06;;;;;;;41.90;18.63;;;4.90;99.90;;;;;;5027231;28;20048;-87
2023/04/25 02:51:33;;;;;;;45.03;21.13;;;4.90;99.90;;;;;;5022258;28;20021;-88
2023/04/25 02:53:59;;;;;;;46.22;20.08;;;4.90;99.90;;;;;;5021328;28;20400;-87
2023/04/25 02:56:25;;;;;;;48.80;22.55;;;4.90;99.90;;;;;;5017604;28;20034;-87
2023/04/25 02:58:52;;;;;;;48.08;21.25;;;5.00;99.90;;;;;;5024080;28;20085;-88
2023/04/25 03:01:18;;;;;;;43.85;21.70;;;4.90;99.90;;;;;;5032045;28;20091;-87
2023/04/25 03:03:43;;;;;;;45.00;20.98;;;4.90;99.90;;;;;;5031325;28;20048;-87
2023/04/25 03:06:09;;;;;;;46.05;20.83;;;4.90;99.90;;;;;;5028860;28;20535;-87
2023/04/25 03:08:36;;;;;;;40.08;20.13;;;4.90;99.90;;;;;;5022959;28;20033;-86
2023/04/25 03:11:02;;;;;;;42.97;20.80;;;4.90;99.90;;;;;;5031660;28;20030;-86
2023/04/25 03:13:29;;;;;;;48.03;22.48;;;4.90;99.90;;;;;;5024364;28;20034;-86
2023/04/25 03:15:55;;;;;;;53.72;22.15;;;5.00;99.90;;;;;;5032127;28;20045;-86
2023/04/25 03:18:21;;;;;;;53.72;23.55;;;4.90;99.90;;;;;;5042145;28;20040;-87
2023/04/25 03:20:47;;;;;;;56.08;25.08;;;5.00;99.90;;;;;;5052959;28;20036;-87
2023/04/25 03:23:12;;;;;;;50.05;23.45;;;5.00;99.90;;;;;;5047439;28;20049;-87
2023/04/25 03:25:41;;;;;;;55.83;23.80;;;4.90;99.90;;;;;;5031428;28;20460;-87
2023/04/25 03:28:06;;;;;;;52.92;24.05;;;4.90;99.90;;;;;;5027057;28;20052;-87
2023/04/25 03:30:32;;;;;;;68.68;25.17;;;4.90;99.90;;;;;;5017283;28;20034;-87
2023/04/25 03:32:59;;;;;;;58.08;24.90;;;4.90;99.90;;;;;;5023801;28;20556;-87
2023/04/25 03:35:25;;;;;;;58.63;25.02;;;4.90;99.90;;;;;;5016066;28;20111;-87
2023/04/25 03:37:50;;;;;;;59.63;26.15;;;4.90;99.90;;;;;;5014361;28;20026;-87
2023/04/25 03:40:22;;;;;;;60.28;24.95;;;5.00;99.90;;;;;;5033831;28;20049;-87
2023/04/25 03:43:13;;;;;;;;;;;5.00;99.90;;;;;;5024301;28;20374;-87
2023/04/25 03:45:44;;;;;;;53.10;23.88;;;5.00;99.90;;;;;;5032227;28;20263;-87
2023/04/25 03:48:11;;;;;;;54.63;24.52;;;5.00;99.90;;;;;;5014741;28;20122;-87
2023/04/25 03:50:37;;;;;;;53.10;24.70;;;5.00;99.90;;;;;;5033170;28;20033;-86
2023/04/25 03:53:04;;;;;;;61.53;25.70;;;4.90;99.90;;;;;;5030301;28;20069;-87
2023/04/25 03:55:39;;;;;;;50.08;22.63;;;5.00;99.90;;;;;;5034215;28;20242;-87
2023/04/25 03:58:08;;;;;;;59.35;25.63;;;4.90;99.90;;;;;;5028224;28;20038;-87
2023/04/25 04:00:34;;;;;;;51.67;23.90;;;4.90;99.90;;;;;;5050288;28;20531;-87
2023/04/25 04:03:01;;;;;;;63.03;25.88;;;4.90;99.90;;;;;;5030111;28;20022;-87
2023/04/25 04:05:28;;;;;;;62.78;27.20;;;4.90;99.90;;;;;;5023128;28;20033;-87
2023/04/25 04:07:55;;;;;;;58.17;25.83;;;4.90;99.90;;;;;;5031113;28;20022;-87
2023/04/25 04:10:22;;;;;;;62.00;26.48;;;4.90;99.90;;;;;;5049845;28;20529;-87
2023/04/25 04:12:47;;;;;;;56.30;25.92;;;4.90;99.90;;;;;;5050001;28;20114;-87
2023/04/25 04:15:13;;;;;;;69.55;27.77;;;4.90;99.90;;;;;;5025051;28;20072;-88
2023/04/25 04:17:41;;;;;;;64.63;26.10;;;4.90;99.90;;;;;;5039710;28;20119;-90
2023/04/25 04:20:08;;;;;;;75.07;26.52;;;4.90;99.90;;;;;;5028298;28;20041;-91
2023/04/25 04:22:34;;;;;;;66.13;27.80;;;4.90;99.90;;;;;;5016596;28;20076;-91
2023/04/25 04:25:05;;;;;;;63.58;26.23;;;4.90;99.90;;;;;;5023644;28;20116;-91
2023/04/25 04:27:54;;;;;;;64.78;26.95;;;4.90;99.90;;;;;;5025468;28;20020;-91
2023/04/25 04:30:40;;;;;;;68.20;27.13;;;4.90;99.90;;;;;;5034539;28;20034;-91
2023/04/25 04:33:08;;;;;;;65.15;26.67;;;4.90;99.90;;;;;;5051525;28;20022;-90
2023/04/25 04:35:34;;;;;;;67.10;28.63;;;4.90;99.90;;;;;;5050774;28;20044;-91
2023/04/25 04:38:00;;;;;;;67.45;27.75;;;4.90;99.90;;;;;;5022974;28;20049;-91
2023/04/25 04:40:32;;;;;;;68.18;28.20;;;4.90;99.90;;;;;;5016000;28;20504;-90
2023/04/25 04:43:13;;;;;;;67.53;28.13;;;4.90;99.90;;;;;;5026969;28;20037;-90
2023/04/25 04:46:00;;;;;;;65.57;28.25;;;4.90;99.90;;;;;;5035267;28;20035;-91
2023/04/25 04:48:40;;;;;;;70.38;28.38;;;4.90;99.90;;;;;;5031118;28;20051;-90
2023/04/25 04:51:20;;;;;;;73.10;29.60;;;4.90;99.90;;;;;;5022977;28;20053;-91
2023/04/25 04:54:06;;;;;;;75.32;29.20;;;4.90;99.90;;;;;;5004347;28;20043;-90
2023/04/25 04:56:53;;;;;;;79.68;29.30;;;4.90;99.90;;;;;;5020053;28;20018;-90
2023/04/25 04:59:37;;;;;;;68.22;29.42;;;4.90;99.90;;;;;;5050262;28;20061;-90
2023/04/25 05:02:33;;;;;;;71.93;29.27;;;4.90;99.90;;;;;;5024587;28;20022;-89
2023/04/25 05:05:27;;;;;;;70.40;29.25;;;5.00;99.90;;;;;;5020301;28;20038;-89
2023/04/25 05:07:59;;;;;;;70.85;29.77;;;5.00;99.90;;;;;;5034869;28;20017;-89
2023/04/25 05:10:50;;;;;;;70.43;30.42;;;5.00;99.90;;;;;;5036359;28;20025;-90
2023/04/25 05:13:30;;;;;;;72.47;30.95;;;4.90;99.90;;;;;;5031751;28;20092;-90
2023/04/25 05:16:06;;;;;;;75.70;31.67;;;5.00;99.90;;;;;;5032587;28;20076;-90
2023/04/25 05:18:47;;;;;;;67.37;30.07;;;5.00;99.90;;;;;;5031122;28;20026;-90
2023/04/25 05:21:31;;;;;;;60.63;30.48;;;5.00;99.90;;;;;;5032512;28;20026;-90
2023/04/25 05:24:12;;;;;;;62.90;29.42;;;5.00;99.90;;;;;;5032948;28;20028;-90
2023/04/25 05:27:07;;;;;;;63.72;29.40;;;4.90;99.90;;;;;;5021641;28;20484;-90
2023/04/25 05:29:35;;;;;;;67.10;30.90;;;5.00;99.90;;;;;;5032567;28;20040;-90
2023/04/25 05:32:17;;;;;;;64.47;30.40;;;5.00;99.90;;;;;;5033854;28;20081;-90
2023/04/25 05:34:45;;;;;;;66.50;30.88;;;5.00;99.90;;;;;;5023285;28;20083;-90
2023/04/25 05:37:19;;;;;;;66.82;30.15;;;5.10;99.90;;;;;;5050622;28;20543;-91
2023/04/25 05:39:53;;;;;;;61.25;29.65;;;5.10;99.90;;;;;;5033933;28;20477;-91
2023/04/25 05:42:34;;;;;;;66.75;29.40;;;5.10;99.90;;;;;;5033960;28;20553;-91
2023/04/25 05:45:07;;;;;;;67.22;29.50;;;5.20;99.90;;;;;;5031616;28;20040;-90
2023/04/25 05:47:46;;;;;;;61.40;29.27;;;5.20;99.90;;;;;;5025809;28;20022;-91
2023/04/25 05:50:38;;;;;;;;;;;5.20;99.90;;;;;;5030925;28;20029;-90
2023/04/25 05:53:15;;;;;;;64.80;28.40;;;5.20;99.90;;;;;;5017097;28;20349;-90
2023/04/25 05:55:42;;;;;;;60.70;28.95;;;5.30;99.90;;;;;;5033344;28;20064;-91
2023/04/25 05:58:21;;;;;;;64.43;29.92;;;5.30;99.90;;;;;;5033221;28;20029;-90
2023/04/25 06:00:46;;;;;;;58.83;29.30;;;5.30;99.90;;;;;;5017361;28;20485;-90
2023/04/25 06:03:14;;;;;;;60.63;30.33;;;5.30;99.90;;;;;;5025287;28;20022;-90
2023/04/25 06:05:42;;;;;;;64.28;30.98;;;5.30;99.90;;;;;;5049501;28;20025;-91
2023/04/25 06:08:08;;;;;;;62.58;30.17;;;5.40;99.90;;;;;;5032724;28;20026;-90
2023/04/25 06:10:34;;;;;;;68.38;28.13;;;5.40;99.90;;;;;;5036476;28;20037;-90
2023/04/25 06:13:00;;;;;;;59.88;30.23;;;5.40;99.90;;;;;;5033104;28;20120;-90
2023/04/25 06:15:26;;;;;;;59.92;29.90;;;5.60;99.90;;;;;;5017751;28;20369;-91
2023/04/25 06:17:52;;;;;;;60.35;30.35;;;5.70;99.90;;;;;;5029985;28;20033;-90
2023/04/25 06:20:18;;;;;;;64.93;31.85;;;5.70;99.90;;;;;;5032966;28;20033;-91
2023/04/25 06:22:43;;;;;;;57.30;29.38;;;5.80;99.90;;;;;;5031658;28;20014;-90
2023/04/25 06:25:09;;;;;;;58.35;29.52;;;5.90;99.90;;;;;;5022333;28;20030;-91
2023/04/25 06:27:35;;;;;;;49.40;25.98;;;5.90;99.90;;;;;;5029382;28;20112;-91
2023/04/25 06:30:02;;;;;;;51.88;26.67;;;5.90;99.90;;;;;;5015931;28;20392;-89
2023/04/25 06:32:30;;;;;;;56.58;26.90;;;5.90;99.90;;;;;;5025101;28;20033;-91
2023/04/25 06:34:59;;;;;;;41.70;23.55;;;6.00;99.90;;;;;;5031076;28;20038;-91
2023/04/25 06:37:25;;;;;;;46.35;25.15;;;6.00;99.90;;;;;;5019509;28;20053;-90
2023/04/25 06:39:51;;;;;;;40.15;22.40;;;6.10;99.90;;;;;;5033208;28;20026;-90
2023/04/25 06:42:17;;;;;;;43.88;24.17;;;6.20;99.90;;;;;;5034536;28;20030;-90
2023/04/25 06:44:52;;;;;;;37.38;21.23;;;6.20;99.90;;;;;;5019885;28;20030;-90
2023/04/25 06:47:19;;;;;;;41.15;20.88;;;6.30;99.90;;;;;;5033638;28;20112;-90
2023/04/25 06:49:45;;;;;;;42.05;19.98;;;6.40;99.90;;;;;;5015481;28;20562;-91
2023/04/25 06:52:14;;;;;;;33.67;20.02;;;6.40;99.90;;;;;;5026663;28;20168;-90
2023/04/25 06:54:41;;;;;;;32.75;19.05;;;6.50;99.90;;;;;;5041699;28;20052;-91
2023/04/25 06:57:32;;;;;;;;;;;6.50;99.90;;;;;;5035957;28;20120;-90
2023/04/25 07:00:13;;;;;;;32.60;19.67;;;6.60;99.90;;;;;;5032657;28;19913;-89
2023/04/25 07:02:40;;;;;;;31.88;19.45;;;6.70;99.90;;;;;;5033142;28;20428;-89
2023/04/25 07:05:07;;;;;;;33.28;19.13;;;6.90;99.90;;;;;;5033203;28;20113;-89
2023/04/25 07:07:38;;;;;;;32.25;19.30;;;7.00;99.90;;;;;;5029878;28;20022;-92
2023/04/25 07:10:06;;;;;;;35.22;19.80;;;7.20;99.90;;;;;;5015409;28;20440;-92
2023/04/25 07:12:32;;;;;;;31.98;18.65;;;7.50;99.90;;;;;;5019302;28;20522;-90
2023/04/25 07:14:58;;;;;;;26.83;17.73;;;7.60;99.90;;;;;;5015256;28;20033;-90
2023/04/25 07:17:24;;;;;;;31.77;17.35;;;7.50;99.90;;;;;;5039772;28;20030;-91
2023/04/25 07:19:51;;;;;;;29.73;16.67;;;7.30;99.90;;;;;;5025335;28;20029;-90
2023/04/25 07:22:17;;;;;;;22.90;12.98;;;6.90;99.90;;;;;;5030920;28;20036;-90
2023/04/25 07:24:44;;;;;;;28.25;14.45;;;6.40;99.90;;;;;;5028231;28;20029;-90
2023/04/25 07:27:13;;;;;;;23.77;12.75;;;6.00;99.90;;;;;;5017726;28;20057;-91
2023/04/25 07:29:47;;;;;;;22.60;11.27;;;5.80;99.90;;;;;;5030400;28;20104;-90
2023/04/25 07:32:13;;;;;;;24.85;10.93;;;5.80;99.90;;;;;;5020693;28;20068;-90
2023/04/25 07:34:41;;;;;;;19.40;9.68;;;6.00;99.90;;;;;;5020568;28;20116;-90
2023/04/25 07:37:07;;;;;;;19.60;10.50;;;6.40;99.90;;;;;;5013751;28;20026;-92
2023/04/25 07:39:42;;;;;;;19.08;9.23;;;6.50;99.90;;;;;;5031541;28;20045;-90
2023/04/25 07:42:09;;;;;;;17.75;10.27;;;6.40;99.90;;;;;;5017763;28;20029;-92
2023/04/25 07:44:40;;;;;;;19.17;8.98;;;6.20;99.90;;;;;;5018404;28;20555;-91
2023/04/25 07:47:09;;;;;;;25.67;9.60;;;6.20;99.90;;;;;;5019587;28;20110;-92
2023/04/25 07:49:36;;;;;;;23.23;8.85;;;6.10;99.90;;;;;;5016526;28;20030;-91
2023/04/25 07:52:05;;;;;;;21.27;9.48;;;6.20;99.90;;;;;;5023230;28;20029;-91
2023/04/25 07:54:32;;;;;;;25.60;9.05;;;6.20;99.90;;;;;;5010860;28;20100;-92
2023/04/25 07:57:06;;;;;;;25.83;10.45;;;6.30;99.90;;;;;;5017830;28;20022;-89
2023/04/25 07:59:33;;;;;;;20.65;9.23;;;6.40;99.90;;;;;;5026720;28;20029;-90
2023/04/25 08:02:01;;;;;;;20.67;9.75;;;6.60;99.90;;;;;;5025927;28;20026;-91
2023/04/25 08:04:27;;;;;;;19.98;9.85;;;6.60;99.90;;;;;;5029056;28;20045;-92
2023/04/25 08:07:04;;;;;;;18.17;9.57;;;6.70;99.90;;;;;;5038929;28;20018;-89
2023/04/25 08:09:37;;;;;;;16.98;8.55;;;6.70;99.90;;;;;;5029123;28;20548;-91
2023/04/25 08:12:07;;;;;;;22.80;9.15;;;6.70;99.90;;;;;;5013493;28;20041;-90
2023/04/25 08:14:35;;;;;;;20.40;9.20;;;6.80;99.90;;;;;;5026226;28;20056;-91
2023/04/25 08:17:03;;;;;;;16.63;8.80;;;6.80;99.90;;;;;;5013212;28;20029;-90
2023/04/25 08:19:31;;;;;;;21.17;9.50;;;7.10;99.90;;;;;;5027012;28;20030;-91
2023/04/25 08:21:57;;;;;;;20.17;10.07;;;7.30;99.90;;;;;;5038002;28;20084;-91
2023/04/25 08:24:30;;;;;;;30.35;10.95;;;7.40;99.90;;;;;;5028231;28;20057;-90
2023/04/25 08:26:58;;;;;;;20.52;9.80;;;7.40;99.90;;;;;;5026863;28;20666;-90
2023/04/25 08:29:28;;;;;;;20.55;9.90;;;7.40;99.90;;;;;;5013238;28;20033;-90
2023/04/25 08:31:53;;;;;;;17.27;9.25;;;7.30;99.90;;;;;;5016758;28;20087;-91
2023/04/25 08:34:20;;;;;;;20.08;9.65;;;7.40;99.90;;;;;;5049022;28;20036;-91
2023/04/25 08:36:50;;;;;;;24.15;11.07;;;7.60;99.90;;;;;;5049769;28;20029;-91
2023/04/25 08:39:37;;;;;;;20.35;10.02;;;7.80;99.90;;;;;;5033453;28;20492;-91
2023/04/25 08:42:23;;;;;;;20.23;9.18;;;8.10;99.90;;;;;;5033052;28;20416;-90
2023/04/25 08:44:49;;;;;;;17.20;9.20;;;8.00;99.90;;;;;;5049537;28;20033;-91
2023/04/25 08:47:17;;;;;;;26.67;9.32;;;7.90;99.90;;;;;;5031401;28;20085;-91
2023/04/25 08:49:54;;;;;;;22.92;8.55;;;8.10;99.90;;;;;;5032913;28;20568;-90
2023/04/25 08:52:23;;;;;;;16.88;9.10;;;8.10;99.90;;;;;;5049228;28;20049;-91
2023/04/25 08:54:49;;;;;;;21.52;9.07;;;7.90;99.90;;;;;;5049770;28;20029;-91
2023/04/25 08:57:18;;;;;;;12.65;7.70;;;7.80;99.90;;;;;;5029752;28;20033;-91
2023/04/25 08:59:46;;;;;;;24.42;9.52;;;7.80;99.90;;;;;;5047120;28;20033;-92
2023/04/25 09:02:17;;;;;;;15.65;8.80;;;7.80;99.90;;;;;;5049769;28;20093;-92
2023/04/25 09:04:45;;;;;;;18.52;8.20;;;8.10;99.90;;;;;;5026332;28;20026;-90
2023/04/25 09:07:11;;;;;;;22.85;8.70;;;8.40;99.90;;;;;;5016129;28;20089;-90
2023/04/25 09:09:39;;;;;;;16.75;8.38;;;8.70;99.90;;;;;;5025784;28;20397;-90
2023/04/25 09:12:05;;;;;;;11.95;6.93;;;8.90;99.90;;;;;;5022412;28;20032;-90
2023/04/25 09:14:31;;;;;;;16.98;8.82;;;8.70;99.90;;;;;;5010905;28;20117;-91
2023/04/25 09:17:19;;;;;;;18.08;8.35;;;8.60;99.90;;;;;;5033252;28;20033;-90
2023/04/25 09:19:51;;;;;;;15.93;7.35;;;9.20;99.90;;;;;;5031131;28;20026;-90
2023/04/25 09:22:23;;;;;;;15.32;7.15;;;9.50;99.90;;;;;;5028538;28;20026;-92
2023/04/25 09:24:50;;;;;;;14.30;6.93;;;9.90;99.90;;;;;;5021328;28;20025;-90
2023/04/25 09:27:26;;;;;;;13.05;7.18;;;9.90;99.90;;;;;;5029547;28;20079;-91
2023/04/25 09:30:09;;;;;;;16.05;5.70;;;10.10;99.90;;;;;;5032429;28;20393;-90
2023/04/25 09:32:57;;;;;;;14.73;5.50;;;10.70;99.90;;;;;;5019320;28;20054;-89
2023/04/25 09:35:25;;;;;;;15.65;5.97;;;11.10;99.90;;;;;;5029126;28;20026;-90
2023/04/25 09:37:52;;;;;;;10.07;5.43;;;11.30;99.90;;;;;;5021598;28;20484;-90
2023/04/25 09:40:52;;;;;;;17.23;6.63;;;10.50;99.90;;;;;;5030631;28;20053;-90
2023/04/25 09:43:39;;;;;;;13.23;5.38;;;10.40;99.90;;;;;;5036339;28;20116;-89
2023/04/25 09:46:10;;;;;;;9.18;5.38;;;10.30;99.90;;;;;;5027487;28;20505;-89
2023/04/25 09:48:39;;;;;;;10.25;4.93;;;10.50;99.90;;;;;;5024243;28;20080;-90
2023/04/25 09:51:09;;;;;;;11.27;5.20;;;10.80;99.90;;;;;;5026180;28;20408;-89
2023/04/25 09:53:38;;;;;;;16.45;5.22;;;11.10;99.90;;;;;;5028168;28;20026;-89
2023/04/25 09:56:21;;;;;;;12.55;5.55;;;10.50;99.90;;;;;;5034336;28;20120;-90
2023/04/25 09:58:53;;;;;;;10.68;5.32;;;9.90;99.90;;;;;;5028077;28;20125;-89
2023/04/25 10:01:20;;;;;;;16.05;5.47;;;10.00;99.90;;;;;;5016038;28;20037;-89
2023/04/25 10:04:03;;;;;;;16.23;6.32;;;10.40;99.90;;;;;;5028542;28;20427;-89
2023/04/25 10:06:43;;;;;;;11.50;5.57;;;10.20;99.90;;;;;;5027998;28;20582;-90
2023/04/25 10:09:09;;;;;;;13.25;5.82;;;10.90;99.90;;;;;;5028588;28;20018;-90
2023/04/25 10:11:38;;;;;;;11.55;4.75;;;12.10;99.90;;;;;;5022570;28;20033;-89
2023/04/25 10:14:05;;;;;;;9.07;4.90;;;13.50;99.90;;;;;;5010563;28;20057;-90
2023/04/25 10:16:31;;;;;;;15.75;8.07;;;13.60;99.90;;;;;;5030830;28;20030;-89
2023/04/25 10:18:57;;;;;;;9.43;5.15;;;12.70;99.90;;;;;;5024331;28;20512;-90
2023/04/25 10:21:24;;;;;;;14.55;6.00;;;11.70;99.90;;;;;;5028127;28;20029;-90
2023/04/25 10:23:50;;;;;;;10.43;5.10;;;11.20;99.90;;;;;;5044642;28;20143;-88
2023/04/25 10:26:17;;;;;;;10.27;5.00;;;11.00;99.90;;;;;;5024023;28;20033;-88
2023/04/25 10:29:00;;;;;;;12.93;5.68;;;10.90;99.90;;;;;;5030104;28;20623;-90
2023/04/25 10:31:26;;;;;;;11.55;5.15;;;11.40;99.90;;;;;;5015578;28;20207;-88
2023/04/25 10:33:53;;;;;;;10.60;5.75;;;12.00;99.90;;;;;;5026486;28;20104;-90
2023/04/25 10:36:21;;;;;;;8.30;5.32;;;12.70;99.90;;;;;;5031755;28;20030;-89
2023/04/25 10:38:50;;;;;;;9.20;4.72;;;13.10;99.90;;;;;;5016381;28;20030;-89
2023/04/25 10:41:22;;;;;;;9.60;4.78;;;13.20;99.90;;;;;;5019027;28;20103;-89
2023/04/25 10:43:50;;;;;;;11.65;5.22;;;13.20;99.90;;;;;;5022170;28;20030;-88
2023/04/25 10:46:23;;;;;;;12.35;5.55;;;12.70;99.90;;;;;;5031130;28;20021;-90
2023/04/25 10:48:54;;;;;;;12.90;5.30;;;11.80;99.90;;;;;;5032073;28;20043;-88
2023/04/25 10:51:23;;;;;;;12.65;5.13;;;11.20;99.90;;;;;;5025300;28;20033;-90
2023/04/25 10:53:54;;;;;;;11.75;4.70;;;10.90;99.90;;;;;;5045324;28;20033;-90
2023/04/25 10:56:21;;;;;;;6.25;3.75;;;11.50;99.90;;;;;;5023946;28;20546;-91
2023/04/25 10:58:48;;;;;;;8.45;4.35;;;12.60;99.90;;;;;;5015159;28;20022;-90
2023/04/25 11:01:14;;;;;;;5.30;3.63;;;12.80;99.90;;;;;;5036200;28;20057;-88
2023/04/25 11:03:42;;;;;;;8.85;4.10;;;13.00;99.90;;;;;;5032953;28;20053;-90
2023/04/25 11:06:31;;;;;;;10.88;4.13;;;13.80;99.90;;;;;;5028783;28;20053;-89
2023/04/25 11:08:59;;;;;;;9.57;5.07;;;14.30;99.90;;;;;;5033734;28;20033;-90
2023/04/25 11:11:26;;;;;;;9.38;5.25;;;13.90;99.90;;;;;;5029640;28;20386;-90
2023/04/25 11:13:51;;;;;;;9.27;5.05;;;12.90;99.90;;;;;;5033703;28;20033;-91
2023/04/25 11:16:18;;;;;;;11.13;4.85;;;12.70;99.90;;;;;;5050490;28;20570;-90
2023/04/25 11:18:44;;;;;;;11.05;4.72;;;12.30;99.90;;;;;;5050457;28;20469;-90
2023/04/25 11:21:11;;;;;;;14.80;5.22;;;11.70;99.90;;;;;;5035439;28;20056;-89
2023/04/25 11:23:36;;;;;;;13.75;5.15;;;11.10;99.90;;;;;;5020929;28;20030;-90
2023/04/25 11:26:03;;;;;;;10.07;4.90;;;10.60;99.90;;;;;;5016887;28;20590;-89
2023/04/25 11:28:30;;;;;;;12.77;5.40;;;9.70;99.90;;;;;;5025779;28;20481;-87
2023/04/25 11:30:56;;;;;;;15.55;5.03;;;9.20;99.90;;;;;;5032710;28;20022;-89
2023/04/25 11:33:27;;;;;;;12.73;6.18;;;8.70;99.90;;;;;;5050276;28;20087;-90
2023/04/25 11:36:05;;;;;;;18.05;7.40;;;8.40;99.90;;;;;;5049837;28;20060;-89
2023/04/25 11:38:30;;;;;;;12.30;5.93;;;8.40;99.90;;;;;;5027713;28;20034;-89
2023/04/25 11:40:57;;;;;;;15.57;6.63;;;8.60;99.90;;;;;;5032438;28;20491;-89
2023/04/25 11:43:22;;;;;;;16.50;5.40;;;9.10;99.90;;;;;;5033010;28;20524;-90
2023/04/25 11:45:50;;;;;;;16.45;5.72;;;9.50;99.90;;;;;;5016023;28;20053;-90
2023/04/25 11:48:16;;;;;;;11.50;6.13;;;9.80;99.90;;;;;;5049617;28;20029;-90
2023/04/25 11:50:42;;;;;;;12.27;5.40;;;10.40;99.90;;;;;;5049824;28;20542;-89
2023/04/25 11:53:08;;;;;;;10.30;5.40;;;11.20;99.90;;;;;;5022200;28;20037;-89
2023/04/25 11:55:35;;;;;;;11.93;5.75;;;12.20;99.90;;;;;;5012978;28;20370;-90
2023/04/25 11:58:02;;;;;;;9.88;5.35;;;12.60;99.90;;;;;;5030730;28;20030;-90
2023/04/25 12:00:28;;;;;;;11.23;5.13;;;12.80;99.90;;;;;;5022639;28;20385;-90
2023/04/25 12:02:57;;;;;;;8.90;4.63;;;12.60;99.90;;;;;;5035750;28;20637;-89
2023/04/25 12:05:32;;;;;;;13.00;5.35;;;11.80;99.90;;;;;;5015684;28;20543;-90
2023/04/25 12:08:12;;;;;;;14.50;4.97;;;11.20;99.90;;;;;;5026007;28;20033;-90
2023/04/25 12:10:40;;;;;;;14.10;5.63;;;10.30;99.90;;;;;;5018061;28;20030;-90
2023/04/25 12:13:24;;;;;;;11.98;5.90;;;9.70;99.90;;;;;;5041598;28;20067;-91
2023/04/25 12:15:49;;;;;;;29.45;13.70;;;9.00;99.90;;;;;;5010809;28;20048;-88
2023/04/25 12:18:21;;;;;;;18.10;8.40;;;8.40;99.90;;;;;;5042646;28;20033;-89
2023/04/25 12:20:47;;;;;;;17.90;8.63;;;8.10;99.90;;;;;;5031985;28;20044;-89
2023/04/25 12:23:13;;;;;;;29.40;12.70;;;8.10;99.90;;;;;;5015969;28;20030;-89
2023/04/25 12:25:44;;;;;;;30.52;14.63;;;8.20;99.90;;;;;;5039430;28;20171;-90
2023/04/25 12:28:14;;;;;;;32.58;15.65;;;8.30;99.90;;;;;;5015582;28;20060;-90
2023/04/25 12:31:01;;;;;;;12.23;6.03;;;8.70;99.90;;;;;;5008695;28;20045;-89
2023/04/25 12:33:32;;;;;;;15.23;6.88;;;9.00;99.90;;;;;;5041621;28;20030;-89
2023/04/25 12:35:59;;;;;;;25.77;9.23;;;9.30;99.90;;;;;;5029610;28;20033;-90
2023/04/25 12:38:26;;;;;;;24.40;10.88;;;9.60;99.90;;;;;;5015459;28;20089;-90
2023/04/25 12:40:53;;;;;;;10.73;5.00;;;10.20;99.90;;;;;;5010720;28;20026;-88
2023/04/25 12:43:19;;;;;;;9.18;5.68;;;11.00;99.90;;;;;;5012716;28;20029;-90
2023/04/25 12:45:47;;;;;;;10.15;4.63;;;11.50;99.90;;;;;;5031375;28;20025;-90
2023/04/25 12:48:13;;;;;;;15.25;6.35;;;11.40;99.90;;;;;;5032119;28;20061;-90
2023/04/25 12:50:39;;;;;;;27.23;11.48;;;11.10;99.90;;;;;;5027515;28;20083;-90
2023/04/25 12:53:04;;;;;;;29.50;14.43;;;10.80;99.90;;;;;;5027088;28;20018;-89
2023/04/25 12:55:46;;;;;;;25.23;11.95;;;10.70;99.90;;;;;;5024030;28;20060;-90